sensor_id;sensor_type;location;lat;lon;timestamp;P1;durP1;ratioP1;P2;durP2;ratioP2
3647;SDS011;1840;48.892;15.312;2023-07-31T00:00:13;11.20;;;3.20;;
3647;SDS011;1840;48.892;15.312;2023-07-31T00:02:41;4.87;;;3.17;;
3647;SDS011;1840;48.892;15.312;2023-07-31T00:05:10;9.93;;;3.23;;
3647;SDS011;1840;48.892;15.312;2023-07-31T00:07:38;6.60;;;3.70;;
3647;SDS011;1840;48.892;15.312;2023-07-31T00:10:06;8.30;;;3.70;;
3647;SDS011;1840;48.892;15.312;2023-07-31T00:12:34;5.77;;;3.20;;
3647;SDS011;1840;48.892;15.312;2023-07-31T00:15:03;9.53;;;3.53;;
3647;SDS011;1840;48.892;15.312;2023-07-31T00:17:33;5.40;;;2.63;;
3647;SDS011;1840;48.892;15.312;2023-07-31T00:20:01;6.93;;;3.03;;
3647;SDS011;1840;48.892;15.312;2023-07-31T00:22:30;7.20;;;3.37;;
3647;SDS011;1840;48.892;15.312;2023-07-31T00:24:58;4.27;;;2.90;;
3647;SDS011;1840;48.892;15.312;2023-07-31T00:27:26;5.60;;;2.83;;
3647;SDS011;1840;48.892;15.312;2023-07-31T00:29:54;6.13;;;3.10;;
3647;SDS011;1840;48.892;15.312;2023-07-31T00:32:22;7.70;;;3.23;;
3647;SDS011;1840;48.892;15.312;2023-07-31T00:34:52;4.90;;;2.53;;
3647;SDS011;1840;48.892;15.312;2023-07-31T00:37:20;7.03;;;3.43;;
3647;SDS011;1840;48.892;15.312;2023-07-31T00:39:48;5.60;;;2.90;;
3647;SDS011;1840;48.892;15.312;2023-07-31T00:42:16;7.60;;;3.07;;
3647;SDS011;1840;48.892;15.312;2023-07-31T00:44:44;9.47;;;4.10;;
3647;SDS011;1840;48.892;15.312;2023-07-31T00:47:12;6.67;;;3.80;;
3647;SDS011;1840;48.892;15.312;2023-07-31T00:49:41;11.50;;;3.57;;
3647;SDS011;1840;48.892;15.312;2023-07-31T00:52:10;17.47;;;3.63;;
3647;SDS011;1840;48.892;15.312;2023-07-31T00:54:38;16.53;;;3.10;;
3647;SDS011;1840;48.892;15.312;2023-07-31T00:57:06;8.43;;;3.43;;
3647;SDS011;1840;48.892;15.312;2023-07-31T00:59:35;7.47;;;3.33;;
3647;SDS011;1840;48.892;15.312;2023-07-31T01:02:03;6.90;;;3.10;;
3647;SDS011;1840;48.892;15.312;2023-07-31T01:04:32;15.83;;;3.27;;
3647;SDS011;1840;48.892;15.312;2023-07-31T01:07:01;7.67;;;3.47;;
3647;SDS011;1840;48.892;15.312;2023-07-31T01:09:40;10.00;;;3.20;;
3647;SDS011;1840;48.892;15.312;2023-07-31T01:12:13;8.00;;;3.43;;
3647;SDS011;1840;48.892;15.312;2023-07-31T01:14:50;6.30;;;3.30;;
3647;SDS011;1840;48.892;15.312;2023-07-31T01:17:19;8.87;;;3.70;;
3647;SDS011;1840;48.892;15.312;2023-07-31T01:19:47;7.33;;;3.10;;
3647;SDS011;1840;48.892;15.312;2023-07-31T01:22:21;7.73;;;3.43;;
3647;SDS011;1840;48.892;15.312;2023-07-31T01:25:03;12.00;;;3.90;;
3647;SDS011;1840;48.892;15.312;2023-07-31T01:27:46;10.00;;;3.27;;
3647;SDS011;1840;48.892;15.312;2023-07-31T01:30:21;8.20;;;3.23;;
3647;SDS011;1840;48.892;15.312;2023-07-31T01:32:53;9.63;;;4.20;;
3647;SDS011;1840;48.892;15.312;2023-07-31T01:35:22;15.67;;;4.17;;
3647;SDS011;1840;48.892;15.312;2023-07-31T01:37:52;5.80;;;3.33;;
3647;SDS011;1840;48.892;15.312;2023-07-31T01:40:20;15.53;;;5.10;;
3647;SDS011;1840;48.892;15.312;2023-07-31T01:42:50;6.80;;;3.40;;
3647;SDS011;1840;48.892;15.312;2023-07-31T01:45:18;12.13;;;3.23;;
3647;SDS011;1840;48.892;15.312;2023-07-31T01:47:46;8.83;;;3.60;;
3647;SDS011;1840;48.892;15.312;2023-07-31T01:50:14;5.50;;;3.40;;
3647;SDS011;1840;48.892;15.312;2023-07-31T01:52:43;8.43;;;3.67;;
3647;SDS011;1840;48.892;15.312;2023-07-31T01:55:11;8.37;;;3.23;;
3647;SDS011;1840;48.892;15.312;2023-07-31T01:57:39;5.53;;;3.30;;
3647;SDS011;1840;48.892;15.312;2023-07-31T02:00:09;7.33;;;3.30;;
3647;SDS011;1840;48.892;15.312;2023-07-31T02:02:36;7.33;;;3.43;;
3647;SDS011;1840;48.892;15.312;2023-07-31T02:05:05;6.90;;;3.30;;
3647;SDS011;1840;48.892;15.312;2023-07-31T02:07:33;17.10;;;3.50;;
3647;SDS011;1840;48.892;15.312;2023-07-31T02:10:01;8.60;;;3.70;;
3647;SDS011;1840;48.892;15.312;2023-07-31T02:12:30;16.87;;;3.07;;
3647;SDS011;1840;48.892;15.312;2023-07-31T02:14:58;6.73;;;3.23;;
3647;SDS011;1840;48.892;15.312;2023-07-31T02:17:28;7.83;;;3.50;;
3647;SDS011;1840;48.892;15.312;2023-07-31T02:19:56;17.27;;;4.33;;
3647;SDS011;1840;48.892;15.312;2023-07-31T02:22:24;10.27;;;3.63;;
3647;SDS011;1840;48.892;15.312;2023-07-31T02:24:52;7.43;;;3.70;;
3647;SDS011;1840;48.892;15.312;2023-07-31T02:27:20;5.47;;;3.30;;
3647;SDS011;1840;48.892;15.312;2023-07-31T02:29:50;13.90;;;3.37;;
3647;SDS011;1840;48.892;15.312;2023-07-31T02:32:18;16.17;;;3.77;;
3647;SDS011;1840;48.892;15.312;2023-07-31T02:34:47;7.23;;;3.80;;
3647;SDS011;1840;48.892;15.312;2023-07-31T02:37:15;7.03;;;3.60;;
3647;SDS011;1840;48.892;15.312;2023-07-31T02:39:44;13.93;;;3.60;;
3647;SDS011;1840;48.892;15.312;2023-07-31T02:42:12;7.57;;;3.73;;
3647;SDS011;1840;48.892;15.312;2023-07-31T02:44:40;16.87;;;4.07;;
3647;SDS011;1840;48.892;15.312;2023-07-31T02:47:08;8.10;;;3.10;;
3647;SDS011;1840;48.892;15.312;2023-07-31T02:49:36;29.37;;;4.67;;
3647;SDS011;1840;48.892;15.312;2023-07-31T02:52:06;9.37;;;3.60;;
3647;SDS011;1840;48.892;15.312;2023-07-31T02:54:34;16.57;;;4.60;;
3647;SDS011;1840;48.892;15.312;2023-07-31T02:57:02;7.97;;;3.77;;
3647;SDS011;1840;48.892;15.312;2023-07-31T02:59:31;10.50;;;3.03;;
3647;SDS011;1840;48.892;15.312;2023-07-31T03:01:59;11.63;;;4.03;;
3647;SDS011;1840;48.892;15.312;2023-07-31T03:04:27;9.40;;;3.87;;
3647;SDS011;1840;48.892;15.312;2023-07-31T03:06:55;6.90;;;3.23;;
3647;SDS011;1840;48.892;15.312;2023-07-31T03:09:24;7.90;;;3.73;;
3647;SDS011;1840;48.892;15.312;2023-07-31T03:11:52;10.13;;;3.67;;
3647;SDS011;1840;48.892;15.312;2023-07-31T03:14:20;8.87;;;3.40;;
3647;SDS011;1840;48.892;15.312;2023-07-31T03:16:49;5.40;;;3.43;;
3647;SDS011;1840;48.892;15.312;2023-07-31T03:19:17;10.83;;;3.60;;
3647;SDS011;1840;48.892;15.312;2023-07-31T03:21:45;9.13;;;3.70;;
3647;SDS011;1840;48.892;15.312;2023-07-31T03:24:13;12.73;;;3.67;;
3647;SDS011;1840;48.892;15.312;2023-07-31T03:26:43;12.03;;;3.73;;
3647;SDS011;1840;48.892;15.312;2023-07-31T03:29:11;8.07;;;3.00;;
3647;SDS011;1840;48.892;15.312;2023-07-31T03:31:39;11.33;;;3.50;;
3647;SDS011;1840;48.892;15.312;2023-07-31T03:34:07;16.30;;;3.70;;
3647;SDS011;1840;48.892;15.312;2023-07-31T03:36:35;6.60;;;3.60;;
3647;SDS011;1840;48.892;15.312;2023-07-31T03:39:04;7.03;;;3.10;;
3647;SDS011;1840;48.892;15.312;2023-07-31T03:41:32;8.37;;;3.30;;
3647;SDS011;1840;48.892;15.312;2023-07-31T03:44:01;5.90;;;2.90;;
3647;SDS011;1840;48.892;15.312;2023-07-31T03:46:30;8.40;;;3.13;;
3647;SDS011;1840;48.892;15.312;2023-07-31T03:48:58;10.90;;;4.07;;
3647;SDS011;1840;48.892;15.312;2023-07-31T03:51:26;8.77;;;3.50;;
3647;SDS011;1840;48.892;15.312;2023-07-31T03:53:55;7.47;;;3.43;;
3647;SDS011;1840;48.892;15.312;2023-07-31T03:56:23;6.40;;;3.50;;
3647;SDS011;1840;48.892;15.312;2023-07-31T03:58:51;7.20;;;2.90;;
3647;SDS011;1840;48.892;15.312;2023-07-31T04:01:20;4.80;;;2.97;;
3647;SDS011;1840;48.892;15.312;2023-07-31T04:03:49;6.90;;;3.60;;
3647;SDS011;1840;48.892;15.312;2023-07-31T04:06:17;13.93;;;3.90;;
3647;SDS011;1840;48.892;15.312;2023-07-31T04:08:45;8.40;;;4.10;;
3647;SDS011;1840;48.892;15.312;2023-07-31T04:11:13;6.40;;;3.50;;
3647;SDS011;1840;48.892;15.312;2023-07-31T04:13:41;9.77;;;3.33;;
3647;SDS011;1840;48.892;15.312;2023-07-31T04:16:09;5.60;;;3.10;;
3647;SDS011;1840;48.892;15.312;2023-07-31T04:18:39;6.13;;;2.90;;
3647;SDS011;1840;48.892;15.312;2023-07-31T04:21:07;8.27;;;3.50;;
3647;SDS011;1840;48.892;15.312;2023-07-31T04:23:36;4.87;;;2.80;;
3647;SDS011;1840;48.892;15.312;2023-07-31T04:26:04;6.80;;;3.10;;
3647;SDS011;1840;48.892;15.312;2023-07-31T04:28:32;3.97;;;2.50;;
3647;SDS011;1840;48.892;15.312;2023-07-31T04:31:01;12.00;;;3.33;;
3647;SDS011;1840;48.892;15.312;2023-07-31T04:33:29;8.33;;;2.80;;
3647;SDS011;1840;48.892;15.312;2023-07-31T04:35:59;8.97;;;3.70;;
3647;SDS011;1840;48.892;15.312;2023-07-31T04:38:27;9.03;;;3.90;;
3647;SDS011;1840;48.892;15.312;2023-07-31T04:40:55;12.37;;;3.70;;
3647;SDS011;1840;48.892;15.312;2023-07-31T04:43:23;4.93;;;3.13;;
3647;SDS011;1840;48.892;15.312;2023-07-31T04:45:51;4.20;;;2.93;;
3647;SDS011;1840;48.892;15.312;2023-07-31T04:48:20;19.03;;;3.60;;
3647;SDS011;1840;48.892;15.312;2023-07-31T04:50:48;6.43;;;2.93;;
3647;SDS011;1840;48.892;15.312;2023-07-31T04:53:18;6.77;;;3.30;;
3647;SDS011;1840;48.892;15.312;2023-07-31T04:55:46;14.90;;;2.97;;
3647;SDS011;1840;48.892;15.312;2023-07-31T04:58:14;11.63;;;3.53;;
3647;SDS011;1840;48.892;15.312;2023-07-31T05:00:43;5.20;;;2.97;;
3647;SDS011;1840;48.892;15.312;2023-07-31T05:03:11;5.93;;;3.07;;
3647;SDS011;1840;48.892;15.312;2023-07-31T05:05:39;9.53;;;3.17;;
3647;SDS011;1840;48.892;15.312;2023-07-31T05:08:07;6.00;;;2.80;;
3647;SDS011;1840;48.892;15.312;2023-07-31T05:10:37;7.07;;;3.27;;
3647;SDS011;1840;48.892;15.312;2023-07-31T05:13:05;6.10;;;2.47;;
3647;SDS011;1840;48.892;15.312;2023-07-31T05:15:33;4.00;;;2.43;;
3647;SDS011;1840;48.892;15.312;2023-07-31T05:18:01;6.60;;;3.07;;
3647;SDS011;1840;48.892;15.312;2023-07-31T05:20:29;8.43;;;2.63;;
3647;SDS011;1840;48.892;15.312;2023-07-31T05:22:58;11.70;;;3.20;;
3647;SDS011;1840;48.892;15.312;2023-07-31T05:25:26;7.87;;;2.60;;
3647;SDS011;1840;48.892;15.312;2023-07-31T05:27:55;11.20;;;3.07;;
3647;SDS011;1840;48.892;15.312;2023-07-31T05:30:23;15.47;;;2.93;;
3647;SDS011;1840;48.892;15.312;2023-07-31T05:32:51;4.93;;;2.67;;
3647;SDS011;1840;48.892;15.312;2023-07-31T05:35:19;7.43;;;3.50;;
3647;SDS011;1840;48.892;15.312;2023-07-31T05:37:48;7.97;;;2.63;;
3647;SDS011;1840;48.892;15.312;2023-07-31T05:40:17;10.17;;;3.10;;
3647;SDS011;1840;48.892;15.312;2023-07-31T05:42:45;6.20;;;3.10;;
3647;SDS011;1840;48.892;15.312;2023-07-31T05:45:14;4.83;;;2.80;;
3647;SDS011;1840;48.892;15.312;2023-07-31T05:47:42;6.00;;;3.10;;
3647;SDS011;1840;48.892;15.312;2023-07-31T05:50:10;10.23;;;3.70;;
3647;SDS011;1840;48.892;15.312;2023-07-31T05:52:39;15.43;;;3.50;;
3647;SDS011;1840;48.892;15.312;2023-07-31T05:55:08;9.07;;;2.57;;
3647;SDS011;1840;48.892;15.312;2023-07-31T05:57:36;5.67;;;2.77;;
3647;SDS011;1840;48.892;15.312;2023-07-31T06:00:04;8.97;;;3.00;;
3647;SDS011;1840;48.892;15.312;2023-07-31T06:02:35;5.30;;;2.47;;
3647;SDS011;1840;48.892;15.312;2023-07-31T06:05:03;8.03;;;3.60;;
3647;SDS011;1840;48.892;15.312;2023-07-31T06:07:32;6.73;;;2.90;;
3647;SDS011;1840;48.892;15.312;2023-07-31T06:10:00;8.70;;;3.07;;
3647;SDS011;1840;48.892;15.312;2023-07-31T06:12:31;6.30;;;3.10;;
3647;SDS011;1840;48.892;15.312;2023-07-31T06:14:59;5.03;;;2.30;;
3647;SDS011;1840;48.892;15.312;2023-07-31T06:17:27;6.57;;;2.43;;
3647;SDS011;1840;48.892;15.312;2023-07-31T06:19:57;5.73;;;2.20;;
3647;SDS011;1840;48.892;15.312;2023-07-31T06:22:25;5.57;;;2.90;;
3647;SDS011;1840;48.892;15.312;2023-07-31T06:24:53;8.13;;;2.80;;
3647;SDS011;1840;48.892;15.312;2023-07-31T06:27:21;4.93;;;2.43;;
3647;SDS011;1840;48.892;15.312;2023-07-31T06:29:49;8.33;;;2.43;;
3647;SDS011;1840;48.892;15.312;2023-07-31T06:32:17;7.27;;;2.23;;
3647;SDS011;1840;48.892;15.312;2023-07-31T06:34:45;5.03;;;2.10;;
3647;SDS011;1840;48.892;15.312;2023-07-31T06:37:15;5.17;;;2.10;;
3647;SDS011;1840;48.892;15.312;2023-07-31T06:39:44;8.00;;;2.63;;
3647;SDS011;1840;48.892;15.312;2023-07-31T06:42:12;11.70;;;2.33;;
3647;SDS011;1840;48.892;15.312;2023-07-31T06:44:40;5.50;;;2.07;;
3647;SDS011;1840;48.892;15.312;2023-07-31T06:47:08;8.13;;;2.50;;
3647;SDS011;1840;48.892;15.312;2023-07-31T06:49:36;7.60;;;2.33;;
3647;SDS011;1840;48.892;15.312;2023-07-31T06:52:04;9.53;;;2.40;;
3647;SDS011;1840;48.892;15.312;2023-07-31T06:54:33;11.80;;;2.50;;
3647;SDS011;1840;48.892;15.312;2023-07-31T06:57:01;6.13;;;2.40;;
3647;SDS011;1840;48.892;15.312;2023-07-31T06:59:30;33.33;;;2.87;;
3647;SDS011;1840;48.892;15.312;2023-07-31T07:01:58;7.07;;;2.30;;
3647;SDS011;1840;48.892;15.312;2023-07-31T07:04:26;7.67;;;1.97;;
3647;SDS011;1840;48.892;15.312;2023-07-31T07:06:54;8.47;;;2.53;;
3647;SDS011;1840;48.892;15.312;2023-07-31T07:09:22;6.00;;;2.23;;
3647;SDS011;1840;48.892;15.312;2023-07-31T07:11:51;10.80;;;2.60;;
3647;SDS011;1840;48.892;15.312;2023-07-31T07:14:19;13.37;;;2.30;;
3647;SDS011;1840;48.892;15.312;2023-07-31T07:16:50;4.63;;;1.97;;
3647;SDS011;1840;48.892;15.312;2023-07-31T07:19:18;8.20;;;1.97;;
3647;SDS011;1840;48.892;15.312;2023-07-31T07:21:46;6.60;;;1.90;;
3647;SDS011;1840;48.892;15.312;2023-07-31T07:24:14;9.90;;;2.53;;
3647;SDS011;1840;48.892;15.312;2023-07-31T07:26:42;6.63;;;2.20;;
3647;SDS011;1840;48.892;15.312;2023-07-31T07:29:12;6.93;;;2.50;;
3647;SDS011;1840;48.892;15.312;2023-07-31T07:31:40;6.10;;;2.23;;
3647;SDS011;1840;48.892;15.312;2023-07-31T07:34:08;7.13;;;2.40;;
3647;SDS011;1840;48.892;15.312;2023-07-31T07:36:36;6.53;;;1.80;;
3647;SDS011;1840;48.892;15.312;2023-07-31T07:39:04;9.10;;;2.43;;
3647;SDS011;1840;48.892;15.312;2023-07-31T07:41:32;6.47;;;2.93;;
3647;SDS011;1840;48.892;15.312;2023-07-31T07:44:00;7.00;;;2.10;;
3647;SDS011;1840;48.892;15.312;2023-07-31T07:46:30;6.90;;;2.63;;
3647;SDS011;1840;48.892;15.312;2023-07-31T07:48:58;5.57;;;2.00;;
3647;SDS011;1840;48.892;15.312;2023-07-31T07:51:26;7.50;;;2.10;;
3647;SDS011;1840;48.892;15.312;2023-07-31T07:53:56;5.93;;;2.30;;
3647;SDS011;1840;48.892;15.312;2023-07-31T07:58:53;7.93;;;2.20;;
3647;SDS011;1840;48.892;15.312;2023-07-31T08:01:21;9.50;;;1.87;;
3647;SDS011;1840;48.892;15.312;2023-07-31T08:03:51;8.33;;;2.40;;
3647;SDS011;1840;48.892;15.312;2023-07-31T08:06:19;4.47;;;2.10;;
3647;SDS011;1840;48.892;15.312;2023-07-31T08:08:48;8.60;;;2.00;;
3647;SDS011;1840;48.892;15.312;2023-07-31T08:11:17;5.23;;;1.97;;
3647;SDS011;1840;48.892;15.312;2023-07-31T08:13:45;6.20;;;2.03;;
3647;SDS011;1840;48.892;15.312;2023-07-31T08:16:13;4.50;;;2.27;;
3647;SDS011;1840;48.892;15.312;2023-07-31T08:18:41;5.43;;;2.20;;
3647;SDS011;1840;48.892;15.312;2023-07-31T08:21:11;10.67;;;3.30;;
3647;SDS011;1840;48.892;15.312;2023-07-31T08:23:39;7.80;;;2.20;;
3647;SDS011;1840;48.892;15.312;2023-07-31T08:26:07;7.37;;;2.20;;
3647;SDS011;1840;48.892;15.312;2023-07-31T08:28:35;10.43;;;2.67;;
3647;SDS011;1840;48.892;15.312;2023-07-31T08:31:03;7.67;;;2.60;;
3647;SDS011;1840;48.892;15.312;2023-07-31T08:33:32;5.53;;;2.10;;
3647;SDS011;1840;48.892;15.312;2023-07-31T08:36:00;5.83;;;2.17;;
3647;SDS011;1840;48.892;15.312;2023-07-31T08:38:29;8.20;;;2.23;;
3647;SDS011;1840;48.892;15.312;2023-07-31T08:40:57;10.50;;;2.30;;
3647;SDS011;1840;48.892;15.312;2023-07-31T08:43:26;5.13;;;2.37;;
3647;SDS011;1840;48.892;15.312;2023-07-31T08:45:54;7.73;;;2.40;;
3647;SDS011;1840;48.892;15.312;2023-07-31T08:48:22;7.40;;;2.17;;
3647;SDS011;1840;48.892;15.312;2023-07-31T08:50:51;6.10;;;1.80;;
3647;SDS011;1840;48.892;15.312;2023-07-31T08:53:20;6.73;;;2.23;;
3647;SDS011;1840;48.892;15.312;2023-07-31T08:55:50;7.70;;;2.10;;
3647;SDS011;1840;48.892;15.312;2023-07-31T08:58:20;9.70;;;2.30;;
3647;SDS011;1840;48.892;15.312;2023-07-31T09:00:50;6.50;;;2.10;;
3647;SDS011;1840;48.892;15.312;2023-07-31T09:03:20;5.00;;;2.17;;
3647;SDS011;1840;48.892;15.312;2023-07-31T09:05:50;5.30;;;2.00;;
3647;SDS011;1840;48.892;15.312;2023-07-31T09:08:19;7.93;;;2.40;;
3647;SDS011;1840;48.892;15.312;2023-07-31T09:10:50;6.67;;;2.30;;
3647;SDS011;1840;48.892;15.312;2023-07-31T09:13:18;7.57;;;2.30;;
3647;SDS011;1840;48.892;15.312;2023-07-31T09:15:46;6.03;;;2.30;;
3647;SDS011;1840;48.892;15.312;2023-07-31T09:18:14;5.60;;;2.00;;
3647;SDS011;1840;48.892;15.312;2023-07-31T09:20:45;7.63;;;2.13;;
3647;SDS011;1840;48.892;15.312;2023-07-31T09:23:13;10.60;;;2.57;;
3647;SDS011;1840;48.892;15.312;2023-07-31T09:25:43;6.87;;;2.13;;
3647;SDS011;1840;48.892;15.312;2023-07-31T09:28:13;5.80;;;1.97;;
3647;SDS011;1840;48.892;15.312;2023-07-31T09:30:45;5.93;;;2.17;;
3647;SDS011;1840;48.892;15.312;2023-07-31T09:33:15;6.90;;;2.13;;
3647;SDS011;1840;48.892;15.312;2023-07-31T09:35:44;8.23;;;2.57;;
3647;SDS011;1840;48.892;15.312;2023-07-31T09:38:12;7.03;;;2.27;;
3647;SDS011;1840;48.892;15.312;2023-07-31T09:40:42;7.47;;;2.70;;
3647;SDS011;1840;48.892;15.312;2023-07-31T09:43:13;4.73;;;2.00;;
3647;SDS011;1840;48.892;15.312;2023-07-31T09:45:45;12.67;;;2.30;;
3647;SDS011;1840;48.892;15.312;2023-07-31T09:48:14;5.63;;;1.83;;
3647;SDS011;1840;48.892;15.312;2023-07-31T09:50:44;5.10;;;2.13;;
3647;SDS011;1840;48.892;15.312;2023-07-31T09:53:13;6.00;;;2.20;;
3647;SDS011;1840;48.892;15.312;2023-07-31T09:55:43;6.97;;;2.33;;
3647;SDS011;1840;48.892;15.312;2023-07-31T09:58:12;7.37;;;2.37;;
3647;SDS011;1840;48.892;15.312;2023-07-31T10:00:40;5.77;;;2.40;;
3647;SDS011;1840;48.892;15.312;2023-07-31T10:03:09;6.67;;;2.10;;
3647;SDS011;1840;48.892;15.312;2023-07-31T10:05:39;6.77;;;2.13;;
3647;SDS011;1840;48.892;15.312;2023-07-31T10:08:09;10.23;;;2.37;;
3647;SDS011;1840;48.892;15.312;2023-07-31T10:10:41;6.20;;;2.33;;
3647;SDS011;1840;48.892;15.312;2023-07-31T10:13:11;6.47;;;1.97;;
3647;SDS011;1840;48.892;15.312;2023-07-31T10:15:41;7.87;;;2.13;;
3647;SDS011;1840;48.892;15.312;2023-07-31T10:18:10;7.13;;;2.20;;
3647;SDS011;1840;48.892;15.312;2023-07-31T10:20:39;6.73;;;1.77;;
3647;SDS011;1840;48.892;15.312;2023-07-31T10:23:08;5.73;;;2.30;;
3647;SDS011;1840;48.892;15.312;2023-07-31T10:25:37;6.27;;;2.13;;
3647;SDS011;1840;48.892;15.312;2023-07-31T10:28:06;7.37;;;2.40;;
3647;SDS011;1840;48.892;15.312;2023-07-31T10:30:37;4.83;;;2.10;;
3647;SDS011;1840;48.892;15.312;2023-07-31T10:33:06;6.47;;;2.10;;
3647;SDS011;1840;48.892;15.312;2023-07-31T10:35:35;4.20;;;1.80;;
3647;SDS011;1840;48.892;15.312;2023-07-31T10:38:08;8.53;;;2.13;;
3647;SDS011;1840;48.892;15.312;2023-07-31T10:40:38;5.30;;;2.13;;
3647;SDS011;1840;48.892;15.312;2023-07-31T10:43:07;7.57;;;2.33;;
3647;SDS011;1840;48.892;15.312;2023-07-31T10:45:39;5.10;;;2.20;;
3647;SDS011;1840;48.892;15.312;2023-07-31T10:48:12;8.73;;;2.30;;
3647;SDS011;1840;48.892;15.312;2023-07-31T10:50:46;6.37;;;2.13;;
3647;SDS011;1840;48.892;15.312;2023-07-31T10:53:22;6.67;;;2.07;;
3647;SDS011;1840;48.892;15.312;2023-07-31T10:55:51;5.63;;;2.30;;
3647;SDS011;1840;48.892;15.312;2023-07-31T10:58:20;6.87;;;2.30;;
3647;SDS011;1840;48.892;15.312;2023-07-31T11:00:51;6.40;;;2.00;;
3647;SDS011;1840;48.892;15.312;2023-07-31T11:03:24;9.20;;;2.50;;
3647;SDS011;1840;48.892;15.312;2023-07-31T11:05:59;4.50;;;1.90;;
3647;SDS011;1840;48.892;15.312;2023-07-31T11:08:30;8.07;;;2.40;;
3647;SDS011;1840;48.892;15.312;2023-07-31T11:11:05;5.80;;;2.00;;
3647;SDS011;1840;48.892;15.312;2023-07-31T11:13:39;12.60;;;2.23;;
3647;SDS011;1840;48.892;15.312;2023-07-31T11:16:09;5.27;;;2.23;;
3647;SDS011;1840;48.892;15.312;2023-07-31T11:18:39;5.97;;;2.13;;
3647;SDS011;1840;48.892;15.312;2023-07-31T11:21:08;8.73;;;2.40;;
3647;SDS011;1840;48.892;15.312;2023-07-31T11:23:40;10.00;;;2.20;;
3647;SDS011;1840;48.892;15.312;2023-07-31T11:26:08;6.37;;;2.30;;
3647;SDS011;1840;48.892;15.312;2023-07-31T11:28:36;6.10;;;2.20;;
3647;SDS011;1840;48.892;15.312;2023-07-31T11:31:05;5.10;;;1.90;;
3647;SDS011;1840;48.892;15.312;2023-07-31T11:33:37;7.70;;;2.50;;
3647;SDS011;1840;48.892;15.312;2023-07-31T11:36:05;5.70;;;2.00;;
3647;SDS011;1840;48.892;15.312;2023-07-31T11:38:41;4.87;;;1.67;;
3647;SDS011;1840;48.892;15.312;2023-07-31T11:41:09;4.77;;;1.83;;
3647;SDS011;1840;48.892;15.312;2023-07-31T11:43:37;6.33;;;2.20;;
3647;SDS011;1840;48.892;15.312;2023-07-31T11:46:05;4.97;;;1.70;;
3647;SDS011;1840;48.892;15.312;2023-07-31T11:48:34;4.93;;;2.00;;
3647;SDS011;1840;48.892;15.312;2023-07-31T11:51:05;5.10;;;2.40;;
3647;SDS011;1840;48.892;15.312;2023-07-31T11:53:36;4.73;;;2.10;;
3647;SDS011;1840;48.892;15.312;2023-07-31T11:56:06;4.30;;;1.80;;
3647;SDS011;1840;48.892;15.312;2023-07-31T11:58:37;3.30;;;1.50;;
3647;SDS011;1840;48.892;15.312;2023-07-31T12:01:06;6.00;;;1.90;;
3647;SDS011;1840;48.892;15.312;2023-07-31T12:03:35;6.70;;;1.80;;
3647;SDS011;1840;48.892;15.312;2023-07-31T12:06:05;4.93;;;1.60;;
3647;SDS011;1840;48.892;15.312;2023-07-31T12:08:33;6.10;;;1.67;;
3647;SDS011;1840;48.892;15.312;2023-07-31T12:11:02;8.03;;;2.17;;
3647;SDS011;1840;48.892;15.312;2023-07-31T12:13:31;5.33;;;2.07;;
3647;SDS011;1840;48.892;15.312;2023-07-31T12:16:02;12.83;;;2.30;;
3647;SDS011;1840;48.892;15.312;2023-07-31T12:18:33;7.77;;;2.23;;
3647;SDS011;1840;48.892;15.312;2023-07-31T12:21:03;7.70;;;1.67;;
3647;SDS011;1840;48.892;15.312;2023-07-31T12:23:35;7.10;;;1.93;;
3647;SDS011;1840;48.892;15.312;2023-07-31T12:26:05;8.87;;;2.00;;
3647;SDS011;1840;48.892;15.312;2023-07-31T12:28:37;5.60;;;2.00;;
3647;SDS011;1840;48.892;15.312;2023-07-31T12:31:08;19.03;;;2.40;;
3647;SDS011;1840;48.892;15.312;2023-07-31T12:33:38;5.47;;;2.00;;
3647;SDS011;1840;48.892;15.312;2023-07-31T12:36:09;8.13;;;2.10;;
3647;SDS011;1840;48.892;15.312;2023-07-31T12:38:38;8.90;;;2.23;;
3647;SDS011;1840;48.892;15.312;2023-07-31T12:41:06;13.33;;;2.50;;
3647;SDS011;1840;48.892;15.312;2023-07-31T12:43:35;6.70;;;2.00;;
3647;SDS011;1840;48.892;15.312;2023-07-31T12:46:03;8.47;;;2.17;;
3647;SDS011;1840;48.892;15.312;2023-07-31T12:48:32;4.20;;;1.70;;
3647;SDS011;1840;48.892;15.312;2023-07-31T12:51:00;6.97;;;1.67;;
3647;SDS011;1840;48.892;15.312;2023-07-31T12:53:30;3.90;;;1.73;;
3647;SDS011;1840;48.892;15.312;2023-07-31T12:55:58;6.07;;;2.33;;
3647;SDS011;1840;48.892;15.312;2023-07-31T12:58:26;5.13;;;2.03;;
3647;SDS011;1840;48.892;15.312;2023-07-31T13:00:55;4.97;;;2.23;;
3647;SDS011;1840;48.892;15.312;2023-07-31T13:03:23;4.97;;;2.10;;
3647;SDS011;1840;48.892;15.312;2023-07-31T13:05:52;4.23;;;1.87;;
3647;SDS011;1840;48.892;15.312;2023-07-31T13:08:20;4.63;;;1.90;;
3647;SDS011;1840;48.892;15.312;2023-07-31T13:10:49;7.47;;;2.10;;
3647;SDS011;1840;48.892;15.312;2023-07-31T13:13:17;4.67;;;1.87;;
3647;SDS011;1840;48.892;15.312;2023-07-31T13:15:46;8.90;;;2.67;;
3647;SDS011;1840;48.892;15.312;2023-07-31T13:18:14;6.77;;;2.30;;
3647;SDS011;1840;48.892;15.312;2023-07-31T13:20:42;7.37;;;2.20;;
3647;SDS011;1840;48.892;15.312;2023-07-31T13:23:10;5.33;;;2.30;;
3647;SDS011;1840;48.892;15.312;2023-07-31T13:25:38;7.63;;;1.90;;
3647;SDS011;1840;48.892;15.312;2023-07-31T13:28:07;7.83;;;1.90;;
3647;SDS011;1840;48.892;15.312;2023-07-31T13:30:35;7.63;;;2.20;;
3647;SDS011;1840;48.892;15.312;2023-07-31T13:33:03;3.80;;;1.70;;
3647;SDS011;1840;48.892;15.312;2023-07-31T13:35:40;4.87;;;1.87;;
3647;SDS011;1840;48.892;15.312;2023-07-31T13:38:08;6.30;;;2.80;;
3647;SDS011;1840;48.892;15.312;2023-07-31T13:40:36;4.67;;;2.20;;
3647;SDS011;1840;48.892;15.312;2023-07-31T13:43:04;5.13;;;2.30;;
3647;SDS011;1840;48.892;15.312;2023-07-31T13:45:33;4.83;;;2.03;;
3647;SDS011;1840;48.892;15.312;2023-07-31T13:48:01;18.70;;;2.53;;
3647;SDS011;1840;48.892;15.312;2023-07-31T13:50:30;5.80;;;2.27;;
3647;SDS011;1840;48.892;15.312;2023-07-31T13:52:58;5.17;;;1.83;;
3647;SDS011;1840;48.892;15.312;2023-07-31T13:55:26;5.73;;;1.83;;
3647;SDS011;1840;48.892;15.312;2023-07-31T13:57:54;4.00;;;1.90;;
3647;SDS011;1840;48.892;15.312;2023-07-31T14:00:22;5.53;;;1.90;;
3647;SDS011;1840;48.892;15.312;2023-07-31T14:02:51;6.23;;;2.17;;
3647;SDS011;1840;48.892;15.312;2023-07-31T14:05:20;4.30;;;1.73;;
3647;SDS011;1840;48.892;15.312;2023-07-31T14:07:48;5.30;;;2.27;;
3647;SDS011;1840;48.892;15.312;2023-07-31T14:10:16;5.67;;;2.10;;
3647;SDS011;1840;48.892;15.312;2023-07-31T14:12:44;7.03;;;2.27;;
3647;SDS011;1840;48.892;15.312;2023-07-31T14:15:12;5.90;;;2.13;;
3647;SDS011;1840;48.892;15.312;2023-07-31T14:17:40;5.03;;;2.20;;
3647;SDS011;1840;48.892;15.312;2023-07-31T14:20:10;5.60;;;2.50;;
3647;SDS011;1840;48.892;15.312;2023-07-31T14:22:39;5.43;;;2.13;;
3647;SDS011;1840;48.892;15.312;2023-07-31T14:25:08;4.37;;;1.97;;
3647;SDS011;1840;48.892;15.312;2023-07-31T14:27:37;4.30;;;2.07;;
3647;SDS011;1840;48.892;15.312;2023-07-31T14:30:05;5.17;;;2.40;;
3647;SDS011;1840;48.892;15.312;2023-07-31T14:32:34;5.47;;;2.33;;
3647;SDS011;1840;48.892;15.312;2023-07-31T14:35:03;5.30;;;2.47;;
3647;SDS011;1840;48.892;15.312;2023-07-31T14:37:37;5.40;;;2.50;;
3647;SDS011;1840;48.892;15.312;2023-07-31T14:40:07;4.50;;;1.90;;
3647;SDS011;1840;48.892;15.312;2023-07-31T14:42:35;5.63;;;1.90;;
3647;SDS011;1840;48.892;15.312;2023-07-31T14:45:04;6.13;;;2.30;;
3647;SDS011;1840;48.892;15.312;2023-07-31T14:47:33;4.80;;;1.80;;
3647;SDS011;1840;48.892;15.312;2023-07-31T14:50:02;4.93;;;1.87;;
3647;SDS011;1840;48.892;15.312;2023-07-31T14:52:30;5.40;;;2.03;;
3647;SDS011;1840;48.892;15.312;2023-07-31T14:55:00;4.87;;;1.80;;
3647;SDS011;1840;48.892;15.312;2023-07-31T14:57:28;6.60;;;2.20;;
3647;SDS011;1840;48.892;15.312;2023-07-31T14:59:56;6.27;;;1.80;;
3647;SDS011;1840;48.892;15.312;2023-07-31T15:02:25;6.90;;;1.90;;
3647;SDS011;1840;48.892;15.312;2023-07-31T15:04:53;7.60;;;2.13;;
3647;SDS011;1840;48.892;15.312;2023-07-31T15:07:22;5.53;;;2.10;;
3647;SDS011;1840;48.892;15.312;2023-07-31T15:09:50;4.67;;;2.00;;
3647;SDS011;1840;48.892;15.312;2023-07-31T15:12:19;5.10;;;2.60;;